Time;durP1;ratioP1;P1;durP2;ratioP2;P2;SDS_P1;SDS_P2;PMS_P1;PMS_P2;Temp;Humidity;BMP_temperature;BMP_pressure;BME280_temperature;BME280_humidity;BME280_pressure;Samples;Min_cycle;Max_cycle;Signal;HPM_P1;HPM_P2
2021/12/07 00:00:08;;;;;;;4.43;3.22;;;;;;;;;;5052143;28;20686;-74
2021/12/07 00:02:35;;;;;;;3.60;3.08;;;;;;;;;;5046555;28;20200;-75
2021/12/07 00:05:02;;;;;;;3.47;3.17;;;;;;;;;;5049420;28;20677;-74
2021/12/07 00:07:31;;;;;;;4.75;3.22;;;;;;;;;;5043988;28;20630;-75
2021/12/07 00:09:58;;;;;;;4.05;3.35;;;;;;;;;;5043379;28;20721;-74
2021/12/07 00:12:28;;;;;;;3.88;3.13;;;;;;;;;;5052443;28;20617;-75
2021/12/07 00:15:01;;;;;;;3.90;3.47;;;;;;;;;;5041460;28;20728;-75
2021/12/07 00:17:28;;;;;;;6.75;3.38;;;;;;;;;;5038871;28;20196;-72
2021/12/07 00:19:55;;;;;;;3.00;2.67;;;;;;;;;;5039129;28;20215;-75
2021/12/07 00:22:22;;;;;;;3.92;3.53;;;;;;;;;;5041530;28;20207;-75
2021/12/07 00:24:51;;;;;;;3.00;2.70;;;;;;;;;;5040909;28;20543;-75
2021/12/07 00:27:18;;;;;;;3.03;2.63;;;;;;;;;;5042734;28;20223;-75
2021/12/07 00:29:45;;;;;;;2.92;2.60;;;;;;;;;;5043824;28;20198;-74
2021/12/07 00:32:24;;;;;;;3.55;2.92;;;;;;;;;;5050699;28;20203;-76
2021/12/07 00:35:23;;;;;;;3.90;2.83;;;;;;;;;;5048952;28;20665;-75
2021/12/07 00:37:52;;;;;;;5.78;3.55;;;;;;;;;;5045796;28;20219;-76
2021/12/07 00:40:21;;;;;;;2.95;2.65;;;;;;;;;;5046876;28;20211;-74
2021/12/07 00:42:49;;;;;;;3.30;2.13;;;;;;;;;;5045608;28;20554;-74
2021/12/07 00:45:19;;;;;;;2.95;2.65;;;;;;;;;;5035583;28;20199;-75
2021/12/07 00:47:47;;;;;;;4.93;2.38;;;;;;;;;;5033924;28;20215;-74
2021/12/07 00:50:14;;;;;;;2.83;2.50;;;;;;;;;;5042696;28;20662;-74
2021/12/07 00:52:41;;;;;;;3.13;2.42;;;;;;;;;;5047208;28;20222;-74
2021/12/07 00:55:10;;;;;;;2.90;2.65;;;;;;;;;;5046860;28;20199;-76
2021/12/07 00:57:38;;;;;;;3.38;2.53;;;;;;;;;;5046110;28;20194;-74
2021/12/07 01:00:07;;;;;;;3.00;2.75;;;;;;;;;;5047774;28;20218;-75
2021/12/07 01:02:34;;;;;;;3.15;2.75;;;;;;;;;;5035842;28;20199;-75
2021/12/07 01:05:09;;;;;;;2.33;2.13;;;;;;;;;;5036028;28;22165;-75
2021/12/07 01:07:54;;;;;;;4.00;2.67;;;;;;;;;;5045415;28;20612;-74
2021/12/07 01:27:03;;;;;;;2.15;1.80;;;;;;;;;;5037587;28;20735;-75
2021/12/07 01:29:32;;;;;;;2.90;2.40;;;;;;;;;;5043333;28;20198;-75
2021/12/07 01:32:10;;;;;;;2.53;2.17;;;;;;;;;;5036325;28;20634;-76
2021/12/07 01:34:59;;;;;;;2.60;2.40;;;;;;;;;;5032408;28;20195;-77
2021/12/07 01:37:39;;;;;;;2.10;1.90;;;;;;;;;;5040479;28;20199;-75
2021/12/07 01:40:26;;;;;;;2.03;1.83;;;;;;;;;;5037527;28;20688;-75
2021/12/07 01:43:36;;;;;;;2.20;2.00;;;;;;;;;;5044559;28;20205;-76
2021/12/07 01:51:46;;;;;;;2.53;2.00;;;;;;;;;;5049461;28;20194;-76
2021/12/07 01:59:46;;;;;;;3.67;2.30;;;;;;;;;;5010515;28;20349;-74
2021/12/07 02:02:16;;;;;;;1.63;1.42;;;;;;;;;;5037896;28;20198;-74
2021/12/07 02:04:44;;;;;;;1.90;1.70;;;;;;;;;;5046701;28;20279;-74
2021/12/07 02:07:11;;;;;;;2.28;1.98;;;;;;;;;;5047321;28;20226;-75
2021/12/07 02:09:41;;;;;;;1.67;1.45;;;;;;;;;;5046264;28;20208;-74
2021/12/07 02:12:09;;;;;;;2.30;1.58;;;;;;;;;;5031372;28;20194;-76
2021/12/07 02:14:36;;;;;;;1.85;1.70;;;;;;;;;;5044799;28;20231;-76
2021/12/07 02:17:04;;;;;;;1.65;1.30;;;;;;;;;;5047015;28;20199;-75
2021/12/07 02:19:32;;;;;;;1.85;1.60;;;;;;;;;;5043934;28;20221;-77
2021/12/07 02:22:01;;;;;;;2.00;1.60;;;;;;;;;;5050907;28;20199;-76
2021/12/07 02:24:29;;;;;;;1.73;1.20;;;;;;;;;;5049563;28;20226;-76
2021/12/07 02:26:56;;;;;;;2.50;2.15;;;;;;;;;;5047593;28;20206;-76
2021/12/07 02:29:23;;;;;;;1.70;1.60;;;;;;;;;;5050038;28;20681;-77
2021/12/07 02:31:52;;;;;;;2.55;1.55;;;;;;;;;;5048273;28;20677;-77
2021/12/07 02:34:20;;;;;;;1.85;1.55;;;;;;;;;;5051462;28;20226;-76
2021/12/07 02:36:48;;;;;;;2.15;1.65;;;;;;;;;;5048872;28;20195;-76
2021/12/07 02:39:16;;;;;;;1.63;1.52;;;;;;;;;;5038814;28;20241;-77
2021/12/07 02:41:43;;;;;;;1.60;1.50;;;;;;;;;;5045509;28;20207;-77
2021/12/07 02:44:11;;;;;;;1.98;1.77;;;;;;;;;;5046333;28;20470;-77
2021/12/07 02:46:39;;;;;;;2.10;1.90;;;;;;;;;;5045118;28;20203;-76
2021/12/07 02:49:06;;;;;;;2.35;2.15;;;;;;;;;;5050054;28;20570;-78
2021/12/07 02:51:33;;;;;;;3.15;2.22;;;;;;;;;;5048575;28;20210;-76
2021/12/07 02:54:01;;;;;;;1.80;1.50;;;;;;;;;;5048274;28;20218;-76
2021/12/07 02:56:29;;;;;;;1.75;1.55;;;;;;;;;;5044044;28;20206;-76
2021/12/07 02:59:00;;;;;;;1.67;1.58;;;;;;;;;;5050640;28;20199;-76
2021/12/07 03:01:31;;;;;;;2.17;1.60;;;;;;;;;;5042461;28;20222;-77
2021/12/07 03:04:03;;;;;;;2.00;1.80;;;;;;;;;;5047057;28;20671;-76
2021/12/07 03:06:46;;;;;;;2.28;1.63;;;;;;;;;;5049847;28;20284;-76
2021/12/07 03:25:59;;;;;;;2.13;1.92;;;;;;;;;;5035957;28;20622;-77
2021/12/07 03:28:28;;;;;;;2.80;2.60;;;;;;;;;;5050150;28;20229;-77
2021/12/07 03:30:55;;;;;;;2.92;1.85;;;;;;;;;;5032673;28;20566;-77
2021/12/07 03:33:22;;;;;;;2.45;2.13;;;;;;;;;;5037316;28;20190;-75
2021/12/07 03:35:49;;;;;;;2.88;2.67;;;;;;;;;;5047866;28;20547;-75
2021/12/07 03:38:17;;;;;;;2.45;2.20;;;;;;;;;;5042391;28;20187;-75
2021/12/07 03:40:44;;;;;;;3.22;2.92;;;;;;;;;;5035821;28;20225;-77
2021/12/07 03:43:12;;;;;;;3.50;3.05;;;;;;;;;;5045371;28;20192;-76
2021/12/07 03:45:41;;;;;;;3.47;2.95;;;;;;;;;;5047050;28;20198;-78
2021/12/07 03:48:09;;;;;;;2.55;2.30;;;;;;;;;;5033144;28;20291;-76
2021/12/07 03:50:36;;;;;;;3.00;2.70;;;;;;;;;;5043013;28;20203;-76
2021/12/07 03:53:03;;;;;;;2.75;2.05;;;;;;;;;;5049219;28;20191;-74
2021/12/07 03:55:31;;;;;;;3.75;3.10;;;;;;;;;;5038502;28;20661;-75
2021/12/07 03:57:58;;;;;;;3.22;2.78;;;;;;;;;;5034594;28;20673;-74
2021/12/07 04:00:26;;;;;;;2.80;2.60;;;;;;;;;;5044132;28;20228;-76
2021/12/07 04:02:55;;;;;;;2.80;2.50;;;;;;;;;;5042409;28;20274;-76
2021/12/07 04:05:23;;;;;;;3.58;3.28;;;;;;;;;;5042454;28;20191;-75
2021/12/07 04:07:50;;;;;;;3.97;3.60;;;;;;;;;;5044822;28;20554;-75
2021/12/07 04:10:18;;;;;;;3.97;3.25;;;;;;;;;;5047088;28;20227;-77
2021/12/07 04:12:46;;;;;;;3.90;3.10;;;;;;;;;;5036130;28;20199;-76
2021/12/07 04:15:14;;;;;;;4.70;4.30;;;;;;;;;;5038271;28;20191;-75
2021/12/07 04:17:42;;;;;;;3.75;2.95;;;;;;;;;;5049181;28;20199;-75
2021/12/07 04:20:12;;;;;;;3.25;2.70;;;;;;;;;;5034008;28;20214;-76
2021/12/07 04:22:39;;;;;;;3.28;2.97;;;;;;;;;;5048789;28;20203;-77
2021/12/07 04:25:07;;;;;;;3.90;3.50;;;;;;;;;;5047777;28;20199;-75
2021/12/07 04:27:38;;;;;;;5.05;4.55;;;;;;;;;;5044292;28;20207;-74
2021/12/07 04:30:06;;;;;;;4.63;4.13;;;;;;;;;;5049572;28;20233;-75
2021/12/07 04:32:33;;;;;;;4.40;4.00;;;;;;;;;;5031971;28;20200;-76
2021/12/07 04:35:00;;;;;;;5.32;4.82;;;;;;;;;;5039549;28;20199;-76
2021/12/07 04:37:28;;;;;;;5.40;4.75;;;;;;;;;;5048309;28;20203;-75
2021/12/07 04:39:55;;;;;;;5.35;4.60;;;;;;;;;;5051591;28;20218;-75
2021/12/07 04:42:24;;;;;;;3.97;3.67;;;;;;;;;;5053063;28;20203;-75
2021/12/07 04:44:55;;;;;;;4.85;4.35;;;;;;;;;;5049197;28;20280;-75
2021/12/07 04:47:29;;;;;;;5.10;4.60;;;;;;;;;;5040284;28;20210;-76
2021/12/07 04:50:21;;;;;;;6.10;5.13;;;;;;;;;;5036534;28;20289;-75
2021/12/07 04:58:19;;;;;;;6.63;5.93;;;;;;;;;;5052730;28;20190;-75
2021/12/07 05:00:46;;;;;;;5.88;4.90;;;;;;;;;;5047589;28;20223;-74
2021/12/07 05:03:14;;;;;;;6.55;5.50;;;;;;;;;;5033672;28;20241;-76
2021/12/07 05:05:46;;;;;;;5.85;5.18;;;;;;;;;;5045249;28;20198;-74
2021/12/07 05:08:18;;;;;;;5.80;4.43;;;;;;;;;;5044118;28;20233;-74
2021/12/07 05:13:51;;;;;;;8.98;6.57;;;;;;;;;;5088479;28;20598;-74
2021/12/07 05:16:42;;;;;;;6.05;5.50;;;;;;;;;;5083642;28;20193;-74
2021/12/07 05:23:54;;;;;;;6.60;5.35;;;;;;;;;;5083772;28;20186;-74
2021/12/07 05:25:06;;;;;;;7.80;5.93;;;;;;;;;;5078145;28;20565;-74
2021/12/07 05:38:34;;;;;;;9.65;6.40;;;;;;;;;;5097574;28;20590;-79
2021/12/07 05:41:01;;;;;;;7.53;6.68;;;;;;;;;;5079620;28;20197;-78
2021/12/07 05:43:28;;;;;;;8.27;6.53;;;;;;;;;;5088002;28;20271;-77
2021/12/07 05:45:57;;;;;;;7.22;6.53;;;;;;;;;;5084237;28;20202;-76
2021/12/07 05:48:24;;;;;;;7.80;6.85;;;;;;;;;;5080140;28;20568;-76
2021/12/07 05:50:51;;;;;;;7.05;6.28;;;;;;;;;;5079691;28;20229;-76
2021/12/07 05:53:18;;;;;;;9.85;6.55;;;;;;;;;;5092194;28;20217;-77
2021/12/07 05:55:45;;;;;;;9.27;5.88;;;;;;;;;;5081988;28;20198;-78
2021/12/07 05:58:12;;;;;;;8.07;6.90;;;;;;;;;;5085194;28;20194;-76
2021/12/07 06:00:43;;;;;;;6.93;6.22;;;;;;;;;;5068284;28;20206;-77
2021/12/07 06:03:12;;;;;;;8.48;6.55;;;;;;;;;;5051105;28;20685;-76
2021/12/07 06:05:40;;;;;;;7.82;6.43;;;;;;;;;;5063870;28;20201;-76
2021/12/07 06:08:07;;;;;;;6.53;5.93;;;;;;;;;;5067765;28;20195;-75
2021/12/07 06:10:34;;;;;;;8.32;6.80;;;;;;;;;;5052574;28;20213;-76
2021/12/07 06:13:02;;;;;;;7.00;6.30;;;;;;;;;;5046894;28;20219;-76
2021/12/07 06:15:32;;;;;;;7.22;6.53;;;;;;;;;;5060330;28;20708;-76
2021/12/07 06:17:59;;;;;;;6.90;6.20;;;;;;;;;;5064475;28;20206;-76
2021/12/07 06:20:28;;;;;;;7.75;6.40;;;;;;;;;;5059559;28;20566;-76
2021/12/07 06:22:55;;;;;;;8.02;7.00;;;;;;;;;;5073135;28;20197;-76
2021/12/07 06:25:22;;;;;;;7.18;6.43;;;;;;;;;;5063573;28;20195;-77
2021/12/07 06:27:49;;;;;;;10.75;7.68;;;;;;;;;;5047608;28;20214;-76
2021/12/07 06:30:16;;;;;;;9.13;7.05;;;;;;;;;;5052178;28;20650;-77
2021/12/07 06:32:43;;;;;;;8.15;6.57;;;;;;;;;;5048283;28;20218;-76
2021/12/07 06:35:11;;;;;;;8.50;6.45;;;;;;;;;;5052959;28;20218;-76
2021/12/07 06:37:39;;;;;;;9.75;6.00;;;;;;;;;;5047997;28;20199;-76
2021/12/07 06:40:09;;;;;;;9.05;5.93;;;;;;;;;;5045230;28;20678;-76
2021/12/07 06:42:38;;;;;;;11.23;6.20;;;;;;;;;;5044795;28;20282;-76
2021/12/07 06:45:06;;;;;;;10.68;6.63;;;;;;;;;;5052536;28;20665;-76
2021/12/07 06:47:33;;;;;;;9.30;5.70;;;;;;;;;;5039605;28;20578;-76
2021/12/07 06:50:00;;;;;;;13.15;6.00;;;;;;;;;;5059741;28;20195;-76
2021/12/07 06:52:27;;;;;;;8.50;6.07;;;;;;;;;;5052938;28;20241;-76
2021/12/07 06:54:57;;;;;;;8.05;6.07;;;;;;;;;;5050156;28;20192;-76
2021/12/07 06:57:24;;;;;;;6.97;5.30;;;;;;;;;;5047188;28;20256;-76
2021/12/07 06:59:51;;;;;;;10.98;5.05;;;;;;;;;;5052824;28;20237;-75
2021/12/07 07:02:18;;;;;;;7.30;5.65;;;;;;;;;;5036317;28;20607;-75
2021/12/07 07:04:45;;;;;;;6.07;5.53;;;;;;;;;;5060009;28;20605;-75
2021/12/07 07:07:13;;;;;;;9.65;5.20;;;;;;;;;;5049025;28;20195;-76
2021/12/07 07:09:40;;;;;;;6.30;4.80;;;;;;;;;;5041806;28;20200;-75
2021/12/07 07:12:09;;;;;;;11.82;6.03;;;;;;;;;;5049557;28;20222;-76
2021/12/07 07:14:36;;;;;;;10.85;5.82;;;;;;;;;;5052509;28;20685;-75
2021/12/07 07:17:04;;;;;;;10.52;6.30;;;;;;;;;;5048227;28;20226;-75
2021/12/07 07:19:31;;;;;;;12.95;6.00;;;;;;;;;;5059893;28;20405;-75
2021/12/07 07:22:01;;;;;;;8.75;5.05;;;;;;;;;;5053238;28;20191;-74
2021/12/07 07:24:28;;;;;;;9.07;5.47;;;;;;;;;;5051301;28;20219;-75
2021/12/07 07:26:55;;;;;;;11.07;5.75;;;;;;;;;;5051581;28;20194;-77
2021/12/07 07:29:23;;;;;;;9.80;5.95;;;;;;;;;;5051683;28;20194;-76
2021/12/07 07:31:50;;;;;;;6.60;4.90;;;;;;;;;;5038208;28;20218;-74
2021/12/07 07:34:18;;;;;;;6.57;5.55;;;;;;;;;;5048893;28;20206;-75
2021/12/07 07:36:45;;;;;;;8.25;5.85;;;;;;;;;;5049801;28;20188;-74
2021/12/07 07:39:12;;;;;;;8.23;4.57;;;;;;;;;;5045705;28;20190;-75
2021/12/07 07:41:39;;;;;;;7.90;6.80;;;;;;;;;;5045971;28;20195;-74
2021/12/07 07:44:06;;;;;;;7.65;5.25;;;;;;;;;;5051780;28;20562;-75
2021/12/07 07:46:35;;;;;;;7.43;6.00;;;;;;;;;;5048912;28;20571;-75
2021/12/07 07:49:03;;;;;;;6.47;5.43;;;;;;;;;;5058575;28;20573;-74
2021/12/07 07:51:30;;;;;;;18.45;6.03;;;;;;;;;;5044108;28;20195;-73
2021/12/07 07:53:59;;;;;;;10.52;6.40;;;;;;;;;;5043111;28;20219;-74
2021/12/07 07:56:26;;;;;;;10.15;6.90;;;;;;;;;;5044559;28;20289;-75
2021/12/07 07:58:54;;;;;;;10.57;6.95;;;;;;;;;;5048654;28;20195;-76
2021/12/07 08:01:23;;;;;;;12.70;6.55;;;;;;;;;;5053713;28;20202;-77
2021/12/07 08:03:51;;;;;;;18.60;10.05;;;;;;;;;;5062929;28;20213;-79
2021/12/07 08:06:19;;;;;;;6.55;5.30;;;;;;;;;;5052584;28;20191;-79
2021/12/07 08:08:46;;;;;;;6.93;5.97;;;;;;;;;;5057528;28;20638;-75
2021/12/07 08:11:13;;;;;;;8.57;5.75;;;;;;;;;;5039419;28;20254;-75
2021/12/07 08:13:41;;;;;;;9.68;6.45;;;;;;;;;;5053772;28;20219;-75
2021/12/07 08:16:15;;;;;;;10.75;6.88;;;;;;;;;;5046790;28;20195;-74
2021/12/07 08:18:42;;;;;;;8.93;6.53;;;;;;;;;;5044334;28;20217;-77
2021/12/07 08:21:11;;;;;;;11.82;7.60;;;;;;;;;;5053663;28;20202;-75
2021/12/07 08:23:38;;;;;;;8.43;5.78;;;;;;;;;;5051359;28;20201;-75
2021/12/07 08:26:06;;;;;;;9.60;7.43;;;;;;;;;;5048007;28;20662;-75
2021/12/07 08:28:33;;;;;;;11.35;6.70;;;;;;;;;;5045193;28;20544;-77
2021/12/07 08:31:00;;;;;;;10.55;7.00;;;;;;;;;;5041069;28;20576;-75
2021/12/07 08:33:27;;;;;;;11.68;7.90;;;;;;;;;;5066536;28;20689;-74
2021/12/07 08:35:54;;;;;;;13.35;7.80;;;;;;;;;;5065892;28;20301;-76
2021/12/07 08:38:23;;;;;;;8.38;6.32;;;;;;;;;;5049293;28;21463;-78
2021/12/07 08:40:53;;;;;;;6.68;5.43;;;;;;;;;;5044488;28;20671;-81
2021/12/07 08:43:22;;;;;;;11.77;7.03;;;;;;;;;;5047526;28;20187;-81
2021/12/07 08:45:49;;;;;;;11.32;6.75;;;;;;;;;;5044768;28;20200;-81
2021/12/07 08:48:16;;;;;;;10.95;6.25;;;;;;;;;;5041962;28;20202;-80
2021/12/07 08:50:44;;;;;;;10.27;6.45;;;;;;;;;;5050729;28;20191;-80
2021/12/07 08:53:13;;;;;;;8.38;5.93;;;;;;;;;;5045801;28;20210;-79
2021/12/07 09:01:13;;;;;;;7.30;5.65;;;;;;;;;;5042509;28;20723;-80
2021/12/07 09:03:41;;;;;;;11.52;6.55;;;;;;;;;;5058042;28;20190;-80
2021/12/07 09:06:08;;;;;;;12.13;7.13;;;;;;;;;;5050823;28;20654;-80
2021/12/07 09:08:35;;;;;;;9.25;6.35;;;;;;;;;;5049504;28;20198;-79
2021/12/07 09:11:04;;;;;;;7.80;5.15;;;;;;;;;;5041026;28;20186;-79
2021/12/07 09:13:31;;;;;;;12.00;6.13;;;;;;;;;;5045468;28;20722;-79
2021/12/07 09:15:58;;;;;;;7.63;5.28;;;;;;;;;;5045854;28;20218;-80
2021/12/07 09:18:26;;;;;;;8.35;6.97;;;;;;;;;;5054338;28;20202;-80
2021/12/07 09:20:54;;;;;;;7.07;5.70;;;;;;;;;;5050478;28;20545;-79
2021/12/07 09:23:21;;;;;;;9.95;6.90;;;;;;;;;;5049647;28;20206;-79
2021/12/07 09:25:48;;;;;;;12.38;7.15;;;;;;;;;;5044649;28;20202;-79
2021/12/07 09:28:17;;;;;;;13.10;8.02;;;;;;;;;;5048835;28;20202;-79
2021/12/07 09:30:50;;;;;;;10.50;7.35;;;;;;;;;;5047621;28;20214;-78
2021/12/07 09:33:18;;;;;;;11.80;8.18;;;;;;;;;;5062621;28;20295;-78
2021/12/07 09:35:45;;;;;;;22.10;7.75;;;;;;;;;;5050103;28;20191;-78
2021/12/07 09:38:12;;;;;;;14.88;7.85;;;;;;;;;;5039636;28;20199;-78
2021/12/07 09:40:41;;;;;;;10.50;6.43;;;;;;;;;;5037112;28;20222;-78
2021/12/07 09:43:09;;;;;;;14.02;8.60;;;;;;;;;;5048705;28;20198;-78
2021/12/07 09:45:37;;;;;;;9.35;7.63;;;;;;;;;;5042888;28;20195;-78
2021/12/07 09:48:06;;;;;;;11.32;6.65;;;;;;;;;;5058757;28;20195;-78
2021/12/07 09:50:34;;;;;;;16.35;8.45;;;;;;;;;;5049857;28;20202;-79
2021/12/07 09:53:01;;;;;;;12.95;8.65;;;;;;;;;;5050198;28;20740;-79
2021/12/07 09:55:29;;;;;;;17.33;8.80;;;;;;;;;;5041769;28;20203;-78
2021/12/07 09:57:56;;;;;;;13.07;8.52;;;;;;;;;;5058029;28;20187;-78
2021/12/07 10:00:25;;;;;;;9.05;6.75;;;;;;;;;;5050132;28;20223;-77
2021/12/07 10:02:54;;;;;;;13.82;9.02;;;;;;;;;;5061310;28;20609;-77
2021/12/07 10:05:22;;;;;;;12.05;7.78;;;;;;;;;;5052384;28;20202;-76
2021/12/07 10:07:50;;;;;;;11.40;7.85;;;;;;;;;;5057874;28;20194;-76
2021/12/07 10:10:20;;;;;;;16.48;8.75;;;;;;;;;;5056313;28;20202;-77
2021/12/07 10:12:48;;;;;;;9.80;7.60;;;;;;;;;;5049997;28;20214;-81
2021/12/07 10:15:15;;;;;;;14.93;9.32;;;;;;;;;;5052900;28;20578;-75
2021/12/07 10:17:42;;;;;;;11.88;6.75;;;;;;;;;;5055378;28;20579;-76
2021/12/07 10:20:33;;;;;;;11.90;8.75;;;;;;;;;;5054658;28;20276;-75
2021/12/07 10:23:04;;;;;;;14.93;7.85;;;;;;;;;;5047500;28;20199;-75
2021/12/07 10:25:31;;;;;;;15.07;9.30;;;;;;;;;;5050287;28;20666;-76
2021/12/07 10:27:58;;;;;;;13.45;9.77;;;;;;;;;;5050338;28;20199;-76
2021/12/07 10:30:25;;;;;;;11.02;8.52;;;;;;;;;;5059570;28;20203;-78
2021/12/07 10:33:05;;;;;;;13.80;8.35;;;;;;;;;;5059156;28;20841;-77
2021/12/07 10:35:35;;;;;;;13.07;8.32;;;;;;;;;;5050182;28;20209;-77
2021/12/07 10:38:11;;;;;;;8.38;7.43;;;;;;;;;;5047081;28;20685;-77
2021/12/07 10:40:54;;;;;;;8.85;7.40;;;;;;;;;;5043097;28;20557;-78
2021/12/07 10:43:36;;;;;;;11.20;8.02;;;;;;;;;;5048908;28;20199;-77
2021/12/07 10:46:04;;;;;;;9.48;6.65;;;;;;;;;;5048991;28;20195;-78
2021/12/07 10:48:31;;;;;;;8.13;6.53;;;;;;;;;;5054175;28;20206;-78
2021/12/07 10:51:10;;;;;;;15.20;7.90;;;;;;;;;;5044604;28;20229;-78
2021/12/07 10:53:37;;;;;;;9.95;6.60;;;;;;;;;;5054160;28;20218;-77
2021/12/07 10:56:05;;;;;;;17.83;7.72;;;;;;;;;;5051361;28;20203;-78
2021/12/07 10:58:33;;;;;;;8.60;6.90;;;;;;;;;;5056462;28;20278;-79
2021/12/07 11:01:00;;;;;;;13.45;7.40;;;;;;;;;;5051439;28;20219;-77
2021/12/07 11:03:29;;;;;;;14.05;6.47;;;;;;;;;;5067955;28;20206;-78
2021/12/07 11:05:56;;;;;;;7.78;6.57;;;;;;;;;;5054308;28;20241;-77
2021/12/07 11:08:28;;;;;;;9.82;6.15;;;;;;;;;;5059582;28;20194;-77
2021/12/07 11:10:56;;;;;;;6.72;6.07;;;;;;;;;;5051287;28;20214;-76
2021/12/07 11:13:34;;;;;;;8.57;6.70;;;;;;;;;;5060622;28;20215;-76
2021/12/07 11:16:02;;;;;;;9.80;5.57;;;;;;;;;;5056819;28;20249;-75
2021/12/07 11:18:31;;;;;;;12.65;6.22;;;;;;;;;;5062313;28;20195;-76
2021/12/07 11:21:02;;;;;;;9.05;5.60;;;;;;;;;;5049895;28;20206;-78
2021/12/07 11:23:31;;;;;;;11.23;5.13;;;;;;;;;;5064336;28;20190;-76
2021/12/07 11:31:32;;;;;;;8.35;5.07;;;;;;;;;;5055500;28;20202;-77
2021/12/07 11:34:05;;;;;;;8.40;5.40;;;;;;;;;;5055236;28;20211;-77
2021/12/07 11:36:34;;;;;;;7.45;5.03;;;;;;;;;;5051715;28;20566;-76
2021/12/07 11:39:19;;;;;;;7.55;5.00;;;;;;;;;;5051490;28;20673;-77
2021/12/07 11:41:48;;;;;;;7.25;5.05;;;;;;;;;;5045838;28;20194;-77
2021/12/07 11:44:15;;;;;;;11.55;5.70;;;;;;;;;;5055163;28;20198;-77
2021/12/07 11:46:48;;;;;;;8.18;4.88;;;;;;;;;;5050303;28;20213;-77
2021/12/07 11:49:16;;;;;;;7.38;4.38;;;;;;;;;;5060158;28;20183;-77
2021/12/07 11:51:44;;;;;;;6.28;4.25;;;;;;;;;;5053452;28;20194;-77
2021/12/07 11:54:13;;;;;;;5.95;5.35;;;;;;;;;;5054282;28;20215;-78
2021/12/07 11:56:42;;;;;;;12.45;5.35;;;;;;;;;;5056351;28;20601;-77
2021/12/07 11:59:09;;;;;;;8.57;4.70;;;;;;;;;;5051060;28;20223;-77
2021/12/07 12:01:37;;;;;;;15.68;5.97;;;;;;;;;;5054240;28;20202;-78
2021/12/07 12:04:04;;;;;;;9.50;4.50;;;;;;;;;;5052079;28;20195;-78
2021/12/07 12:06:31;;;;;;;11.00;5.38;;;;;;;;;;5047927;28;20202;-77
2021/12/07 12:08:59;;;;;;;6.65;4.15;;;;;;;;;;5053348;28;20350;-78
2021/12/07 12:11:32;;;;;;;9.85;4.30;;;;;;;;;;5044375;28;20704;-76
2021/12/07 12:14:06;;;;;;;9.68;5.43;;;;;;;;;;5047316;28;20220;-76
2021/12/07 12:16:37;;;;;;;12.30;4.97;;;;;;;;;;5046516;28;20199;-77
2021/12/07 12:19:08;;;;;;;7.53;4.22;;;;;;;;;;5055655;28;20197;-78
2021/12/07 12:21:37;;;;;;;10.55;6.30;;;;;;;;;;5050179;28;20203;-77
2021/12/07 12:24:14;;;;;;;5.85;3.95;;;;;;;;;;5048723;28;20201;-77
2021/12/07 12:26:45;;;;;;;7.90;4.60;;;;;;;;;;5050998;28;20203;-77
2021/12/07 12:29:19;;;;;;;4.32;3.92;;;;;;;;;;5054079;28;20237;-76
2021/12/07 12:31:49;;;;;;;11.48;4.22;;;;;;;;;;5050299;28;20671;-76
2021/12/07 12:34:17;;;;;;;10.35;4.63;;;;;;;;;;5055445;28;20210;-76
2021/12/07 12:36:56;;;;;;;6.18;4.68;;;;;;;;;;5056489;28;20193;-76
2021/12/07 12:39:40;;;;;;;11.52;5.28;;;;;;;;;;5055184;28;20563;-77
2021/12/07 12:42:08;;;;;;;7.35;4.63;;;;;;;;;;5053661;28;20206;-76
2021/12/07 12:44:36;;;;;;;6.13;3.55;;;;;;;;;;5050566;28;20195;-76
2021/12/07 12:47:05;;;;;;;5.20;3.90;;;;;;;;;;5043662;28;20198;-75
2021/12/07 12:49:37;;;;;;;6.22;3.50;;;;;;;;;;5067203;28;20198;-77
2021/12/07 12:52:04;;;;;;;5.57;3.10;;;;;;;;;;5039147;28;20558;-75
2021/12/07 12:54:39;;;;;;;5.15;3.85;;;;;;;;;;5056362;28;20615;-76
2021/12/07 12:57:11;;;;;;;7.50;5.22;;;;;;;;;;5059344;28;20190;-77
2021/12/07 12:59:39;;;;;;;7.10;3.95;;;;;;;;;;5047098;28;20222;-77
2021/12/07 13:02:07;;;;;;;5.80;3.85;;;;;;;;;;5044809;28;20206;-75
2021/12/07 13:04:34;;;;;;;8.38;4.38;;;;;;;;;;5051387;28;20203;-76
2021/12/07 13:07:23;;;;;;;6.40;4.45;;;;;;;;;;5056287;28;20248;-75
2021/12/07 13:09:50;;;;;;;9.25;5.00;;;;;;;;;;5051304;28;20194;-76
2021/12/07 13:12:20;;;;;;;8.48;4.90;;;;;;;;;;5053488;28;20207;-76
2021/12/07 13:14:58;;;;;;;7.53;3.58;;;;;;;;;;5064498;28;20222;-75
2021/12/07 13:17:27;;;;;;;9.55;5.35;;;;;;;;;;5048642;28;20523;-75
2021/12/07 13:20:06;;;;;;;9.57;4.30;;;;;;;;;;5055800;28;20201;-77
2021/12/07 13:22:37;;;;;;;10.40;5.45;;;;;;;;;;5049547;28;20210;-76
2021/12/07 13:25:06;;;;;;;7.15;4.32;;;;;;;;;;5050501;28;20680;-77
2021/12/07 13:27:35;;;;;;;7.47;3.78;;;;;;;;;;5061332;28;20190;-76
2021/12/07 13:30:03;;;;;;;9.57;4.70;;;;;;;;;;5058084;28;20195;-77
2021/12/07 13:32:30;;;;;;;8.20;4.68;;;;;;;;;;5049944;28;20574;-75
2021/12/07 13:35:02;;;;;;;7.20;4.25;;;;;;;;;;5065385;28;20229;-75
2021/12/07 13:37:44;;;;;;;8.68;4.07;;;;;;;;;;5057318;28;20641;-75
2021/12/07 13:40:18;;;;;;;7.60;4.35;;;;;;;;;;5052808;28;20621;-75
2021/12/07 13:42:50;;;;;;;7.22;4.68;;;;;;;;;;5052654;28;20589;-75
2021/12/07 13:45:19;;;;;;;7.32;4.53;;;;;;;;;;5054281;28;20610;-75
2021/12/07 13:47:47;;;;;;;9.85;4.50;;;;;;;;;;5054321;28;20528;-75
2021/12/07 13:50:16;;;;;;;8.55;4.60;;;;;;;;;;5058656;28;20195;-75
2021/12/07 13:52:44;;;;;;;10.05;3.70;;;;;;;;;;5051533;28;20205;-75
2021/12/07 13:55:12;;;;;;;4.82;4.32;;;;;;;;;;5055970;28;20229;-74
2021/12/07 13:57:41;;;;;;;6.45;4.53;;;;;;;;;;5057003;28;20194;-75
2021/12/07 14:00:12;;;;;;;4.75;3.88;;;;;;;;;;5055763;28;20700;-75
2021/12/07 14:02:40;;;;;;;6.32;3.85;;;;;;;;;;5051583;28;20222;-75
2021/12/07 14:05:09;;;;;;;7.57;3.75;;;;;;;;;;5059142;28;20202;-74
2021/12/07 14:07:37;;;;;;;4.78;3.10;;;;;;;;;;5046348;28;20305;-76
2021/12/07 14:10:15;;;;;;;7.65;4.15;;;;;;;;;;5055493;28;20194;-74
2021/12/07 14:12:42;;;;;;;7.25;3.80;;;;;;;;;;5065336;28;20198;-74
2021/12/07 14:15:13;;;;;;;6.18;3.40;;;;;;;;;;5066825;28;20229;-74
2021/12/07 14:17:41;;;;;;;4.50;2.97;;;;;;;;;;5050622;28;20199;-74
2021/12/07 14:20:08;;;;;;;5.47;3.35;;;;;;;;;;5060261;28;20202;-75
2021/12/07 14:22:35;;;;;;;6.65;4.10;;;;;;;;;;5054362;28;20195;-75
2021/12/07 14:25:02;;;;;;;5.70;3.72;;;;;;;;;;5052765;28;20195;-75
2021/12/07 14:27:29;;;;;;;4.30;2.58;;;;;;;;;;5047047;28;20639;-75
2021/12/07 14:29:56;;;;;;;6.25;3.17;;;;;;;;;;5061492;28;20532;-74
2021/12/07 14:32:25;;;;;;;7.93;3.67;;;;;;;;;;5037610;28;20199;-75
2021/12/07 14:34:52;;;;;;;5.40;3.05;;;;;;;;;;5056416;28;20218;-75
2021/12/07 14:37:19;;;;;;;4.45;3.05;;;;;;;;;;5053658;28;20187;-76
2021/12/07 14:39:46;;;;;;;5.07;3.75;;;;;;;;;;5033330;28;20199;-74
2021/12/07 14:42:15;;;;;;;4.95;3.08;;;;;;;;;;5049716;28;20194;-74
2021/12/07 14:44:43;;;;;;;3.83;3.00;;;;;;;;;;5052700;28;20187;-74
2021/12/07 14:47:11;;;;;;;4.55;2.90;;;;;;;;;;5038406;28;20207;-75
2021/12/07 14:49:40;;;;;;;4.97;3.10;;;;;;;;;;5067619;28;20213;-75
2021/12/07 14:52:10;;;;;;;5.50;2.50;;;;;;;;;;5049774;28;20574;-76
2021/12/07 14:54:37;;;;;;;4.80;3.25;;;;;;;;;;5036095;28;20617;-74
2021/12/07 14:57:04;;;;;;;5.75;2.80;;;;;;;;;;5047764;28;20590;-76
2021/12/07 14:59:31;;;;;;;6.40;3.50;;;;;;;;;;5054400;28;20227;-76
2021/12/07 15:01:59;;;;;;;6.88;2.35;;;;;;;;;;5036385;28;20210;-76
2021/12/07 15:04:26;;;;;;;7.25;3.30;;;;;;;;;;5050716;28;20198;-76
2021/12/07 15:07:00;;;;;;;6.28;2.63;;;;;;;;;;5065705;28;20208;-76
2021/12/07 15:09:27;;;;;;;4.30;3.05;;;;;;;;;;5047762;28;20229;-76
2021/12/07 15:11:56;;;;;;;6.07;2.65;;;;;;;;;;5056601;28;20707;-76
2021/12/07 15:14:25;;;;;;;5.10;3.25;;;;;;;;;;5057491;28;20206;-75
2021/12/07 15:16:57;;;;;;;3.15;2.58;;;;;;;;;;5048845;28;20203;-77
2021/12/07 15:19:24;;;;;;;7.57;3.13;;;;;;;;;;5049614;28;20197;-75
2021/12/07 15:21:53;;;;;;;6.40;2.33;;;;;;;;;;5062957;28;20197;-76
2021/12/07 15:24:23;;;;;;;5.10;3.30;;;;;;;;;;5048812;28;20203;-77
2021/12/07 15:26:52;;;;;;;8.98;3.33;;;;;;;;;;5052505;28;20558;-78
2021/12/07 15:29:20;;;;;;;4.20;2.85;;;;;;;;;;5058840;28;20194;-77
2021/12/07 15:31:48;;;;;;;4.20;3.00;;;;;;;;;;5040235;28;20213;-75
2021/12/07 15:34:17;;;;;;;5.20;2.83;;;;;;;;;;5054791;28;20222;-76
2021/12/07 15:36:45;;;;;;;3.13;2.60;;;;;;;;;;5044558;28;20586;-78
2021/12/07 15:39:14;;;;;;;8.02;2.92;;;;;;;;;;5051928;28;20621;-78
2021/12/07 15:41:44;;;;;;;6.10;2.80;;;;;;;;;;5042790;28;20555;-77
2021/12/07 15:44:12;;;;;;;3.90;2.45;;;;;;;;;;5050062;28;20195;-76
2021/12/07 15:46:46;;;;;;;3.90;2.40;;;;;;;;;;5046152;28;20565;-77
2021/12/07 15:49:13;;;;;;;4.95;2.95;;;;;;;;;;5050946;28;20195;-76
2021/12/07 15:51:50;;;;;;;5.78;3.08;;;;;;;;;;5054908;28;20199;-77
2021/12/07 15:54:18;;;;;;;3.75;2.55;;;;;;;;;;5048300;28;20202;-76
2021/12/07 15:56:46;;;;;;;3.90;3.00;;;;;;;;;;5035624;28;20679;-76
2021/12/07 15:59:14;;;;;;;5.60;2.90;;;;;;;;;;5043977;28;20307;-75
2021/12/07 16:01:42;;;;;;;3.03;2.65;;;;;;;;;;5041674;28;20659;-74
2021/12/07 16:04:09;;;;;;;7.40;2.50;;;;;;;;;;5050973;28;20619;-76
2021/12/07 16:06:37;;;;;;;3.38;2.58;;;;;;;;;;5055773;28;20206;-75
2021/12/07 16:09:15;;;;;;;4.93;2.58;;;;;;;;;;5066033;28;20202;-76
2021/12/07 16:11:42;;;;;;;6.57;3.03;;;;;;;;;;5041086;28;20206;-75